createdAt,value
2022-10-21T00:00:17.947Z,6.10
2022-10-21T00:02:45.137Z,5.50
2022-10-21T00:05:11.876Z,5.20
2022-10-21T00:07:38.614Z,5.93
2022-10-21T00:10:06.658Z,6.20
2022-10-21T00:12:34.453Z,7.70
2022-10-21T00:15:01.836Z,7.17
2022-10-21T00:17:28.526Z,7.00
2022-10-21T00:19:55.224Z,6.70
2022-10-21T00:22:21.977Z,7.27
2022-10-21T00:24:49.038Z,6.70
2022-10-21T00:27:15.736Z,5.43
2022-10-21T00:29:42.557Z,6.00
2022-10-21T00:32:09.264Z,5.60
2022-10-21T00:34:36.117Z,6.00
2022-10-21T00:37:02.897Z,5.60
2022-10-21T00:39:29.924Z,5.90
2022-10-21T00:41:56.609Z,5.47
2022-10-21T00:44:23.365Z,6.03
2022-10-21T00:47:03.171Z,6.03
2022-10-21T00:50:05.287Z,5.50
2022-10-21T00:52:33.884Z,6.90
2022-10-21T00:55:03.532Z,6.07
2022-10-21T00:57:32.715Z,5.83
2022-10-21T01:00:01.380Z,5.20
2022-10-21T01:02:29.109Z,4.97
2022-10-21T01:04:59.119Z,5.90
2022-10-21T01:07:25.997Z,6.53
2022-10-21T01:09:52.945Z,6.03
2022-10-21T01:12:29.362Z,6.43
2022-10-21T01:15:26.064Z,5.53
2022-10-21T01:18:25.434Z,6.00
2022-10-21T01:20:58.207Z,5.83
2022-10-21T01:24:09.698Z,6.30
2022-10-21T01:27:15.966Z,6.33
2022-10-21T01:30:32.797Z,6.57
2022-10-21T01:33:33.376Z,5.70
2022-10-21T01:36:26.335Z,5.60
2022-10-21T01:39:03.640Z,6.50
2022-10-21T01:42:02.606Z,5.70
2022-10-21T01:44:50.836Z,6.40
2022-10-21T01:47:31.336Z,7.10
2022-10-21T01:50:02.796Z,5.90
2022-10-21T01:52:30.502Z,5.40
2022-10-21T01:55:04.716Z,5.90
2022-10-21T01:57:35.561Z,5.80
2022-10-21T02:00:02.594Z,5.63
2022-10-21T02:02:32.368Z,5.60
2022-10-21T02:05:02.268Z,5.30
2022-10-21T02:07:29.126Z,5.97
2022-10-21T02:09:56.216Z,6.10
2022-10-21T02:12:25.252Z,5.20
2022-10-21T02:14:52.874Z,6.13
2022-10-21T02:17:22.096Z,5.67
2022-10-21T02:19:48.743Z,6.33
2022-10-21T02:22:19.305Z,6.33
2022-10-21T02:25:05.718Z,5.70
2022-10-21T02:27:32.637Z,7.20
2022-10-21T02:30:00.278Z,6.80
2022-10-21T02:32:56.417Z,6.63
2022-10-21T02:35:29.097Z,6.80
2022-10-21T02:38:10.875Z,5.50
2022-10-21T02:41:03.977Z,6.60
2022-10-21T02:43:33.130Z,6.43
2022-10-21T02:46:01.994Z,5.27
2022-10-21T02:48:28.767Z,6.00
2022-10-21T02:50:55.435Z,5.90
2022-10-21T02:53:22.059Z,6.03
2022-10-21T02:55:48.783Z,4.90
2022-10-21T02:58:15.415Z,6.10
2022-10-21T03:00:42.191Z,6.77
2022-10-21T03:03:08.886Z,7.30
2022-10-21T03:05:35.608Z,6.10
2022-10-21T03:08:02.314Z,5.80
2022-10-21T03:10:29.846Z,7.20
2022-10-21T03:12:56.526Z,7.00
2022-10-21T03:15:23.297Z,5.97
2022-10-21T03:17:49.976Z,5.70
2022-10-21T03:20:16.916Z,6.20
2022-10-21T03:22:44.320Z,6.30
2022-10-21T03:25:11.097Z,6.67
2022-10-21T03:27:37.959Z,5.67
2022-10-21T03:30:05.866Z,5.97
2022-10-21T03:32:32.707Z,6.37
2022-10-21T03:34:59.364Z,6.53
2022-10-21T03:37:26.259Z,4.93
2022-10-21T03:39:53.076Z,5.43
2022-10-21T03:42:19.804Z,6.67
2022-10-21T03:44:46.521Z,7.30
2022-10-21T03:47:13.297Z,6.57
2022-10-21T03:49:40.001Z,6.53
2022-10-21T03:52:06.756Z,7.83
2022-10-21T03:54:33.504Z,6.20
2022-10-21T03:57:00.217Z,5.27
2022-10-21T03:59:27.038Z,6.20
2022-10-21T04:01:54.047Z,5.20
2022-10-21T04:04:20.805Z,6.63
2022-10-21T04:06:47.487Z,6.60
2022-10-21T04:09:14.288Z,5.80
2022-10-21T04:11:41.020Z,6.97
2022-10-21T04:14:11.502Z,5.17
2022-10-21T04:16:41.408Z,6.40
2022-10-21T04:19:08.156Z,6.80
2022-10-21T04:21:34.877Z,6.50
2022-10-21T04:24:02.101Z,6.07
2022-10-21T04:26:28.670Z,6.77
2022-10-21T04:28:55.368Z,6.67
2022-10-21T04:31:22.056Z,6.60
2022-10-21T04:33:48.701Z,6.00
2022-10-21T04:36:15.314Z,6.70
2022-10-21T04:38:41.916Z,6.40
2022-10-21T04:41:08.669Z,5.03
2022-10-21T04:43:37.283Z,6.30
2022-10-21T04:46:07.526Z,6.40
2022-10-21T04:48:36.553Z,6.27
2022-10-21T04:51:03.194Z,7.50
2022-10-21T04:53:29.830Z,6.90
2022-10-21T04:55:56.478Z,6.47
2022-10-21T04:58:23.348Z,7.73
2022-10-21T05:00:51.150Z,6.50
2022-10-21T05:03:18.832Z,7.07
2022-10-21T05:05:45.480Z,6.10
2022-10-21T05:08:12.193Z,5.97
2022-10-21T05:10:39.010Z,7.30
2022-10-21T05:13:06.233Z,7.40
2022-10-21T05:15:34.102Z,5.60
2022-10-21T05:18:00.921Z,6.90
2022-10-21T05:20:27.824Z,6.63
2022-10-21T05:22:54.592Z,5.63
2022-10-21T05:25:22.095Z,5.07
2022-10-21T05:27:49.556Z,6.23
2022-10-21T05:30:16.314Z,5.97
2022-10-21T05:32:43.151Z,6.13
2022-10-21T05:35:12.158Z,5.00
2022-10-21T05:37:38.942Z,6.10
2022-10-21T05:40:06.362Z,6.00
2022-10-21T05:42:33.161Z,5.67
2022-10-21T05:44:59.991Z,5.90
2022-10-21T05:47:26.662Z,6.00
2022-10-21T05:49:53.374Z,6.43
2022-10-21T05:52:20.132Z,8.53
2022-10-21T05:54:46.933Z,10.13
2022-10-21T05:57:13.673Z,9.50
2022-10-21T05:59:40.419Z,8.60
2022-10-21T06:02:07.290Z,7.90
2022-10-21T06:04:37.906Z,7.67
2022-10-21T06:07:05.770Z,7.50
2022-10-21T06:09:32.841Z,9.73
2022-10-21T06:11:59.719Z,8.83
2022-10-21T06:14:26.981Z,7.50
2022-10-21T06:16:53.713Z,7.97
2022-10-21T06:19:20.496Z,8.63
2022-10-21T06:21:47.943Z,7.13
2022-10-21T06:24:14.824Z,6.20
2022-10-21T06:26:41.601Z,6.10
2022-10-21T06:29:08.473Z,7.37
2022-10-21T06:31:35.209Z,7.40
2022-10-21T06:34:01.941Z,12.60
2022-10-21T06:36:29.662Z,9.33
2022-10-21T06:38:56.466Z,11.20
2022-10-21T06:41:23.361Z,9.73
2022-10-21T06:43:50.171Z,9.60
2022-10-21T06:46:17.816Z,9.80
2022-10-21T06:48:44.502Z,8.40
2022-10-21T06:51:18.223Z,7.77
2022-10-21T06:53:45.391Z,8.93
2022-10-21T06:56:14.641Z,7.77
2022-10-21T06:58:48.022Z,7.50
2022-10-21T07:01:34.248Z,7.47
2022-10-21T07:04:08.887Z,7.50
2022-10-21T07:06:35.734Z,7.87
2022-10-21T07:09:04.052Z,8.40
2022-10-21T07:11:30.744Z,7.17
2022-10-21T07:13:57.573Z,7.73
2022-10-21T07:16:29.927Z,8.90
2022-10-21T07:18:57.093Z,8.40
2022-10-21T07:21:26.281Z,7.20
2022-10-21T07:23:56.530Z,7.60
2022-10-21T07:26:27.195Z,8.93
2022-10-21T07:28:55.002Z,7.33
2022-10-21T07:31:21.997Z,8.83
2022-10-21T07:33:49.098Z,7.93
2022-10-21T07:36:24.573Z,7.77
2022-10-21T07:38:52.293Z,7.00
2022-10-21T07:41:27.663Z,8.53
2022-10-21T07:43:55.104Z,7.83
2022-10-21T07:46:22.894Z,10.33
2022-10-21T07:48:50.474Z,11.17
2022-10-21T07:51:19.741Z,12.80
2022-10-21T07:53:46.890Z,9.80
2022-10-21T07:56:19.524Z,11.17
2022-10-21T07:58:49.253Z,11.57
2022-10-21T08:01:17.585Z,9.53
2022-10-21T08:03:44.394Z,8.93
2022-10-21T08:06:13.177Z,10.70
2022-10-21T08:08:40.671Z,11.37
2022-10-21T08:11:08.404Z,9.87
2022-10-21T08:13:35.444Z,9.47
2022-10-21T08:16:04.613Z,10.53
2022-10-21T08:18:31.370Z,9.03
2022-10-21T08:20:58.089Z,10.57
2022-10-21T08:23:26.502Z,9.90
2022-10-21T08:25:55.694Z,11.63
2022-10-21T08:28:23.849Z,10.20
2022-10-21T08:30:50.691Z,12.10
2022-10-21T08:33:17.882Z,17.90
2022-10-21T08:35:44.694Z,14.30
2022-10-21T08:38:11.918Z,11.67
2022-10-21T08:40:45.275Z,10.80
2022-10-21T08:43:23.784Z,17.77
2022-10-21T08:45:58.013Z,17.30
2022-10-21T08:48:39.533Z,23.60
2022-10-21T08:51:07.521Z,13.10
2022-10-21T08:53:45.323Z,9.53
2022-10-21T08:56:18.655Z,12.77
2022-10-21T08:58:48.681Z,11.67
2022-10-21T09:01:27.529Z,12.37
2022-10-21T09:04:01.246Z,13.37
2022-10-21T09:06:30.088Z,13.47
2022-10-21T09:09:20.908Z,11.00
2022-10-21T09:11:50.466Z,9.60
2022-10-21T09:14:26.169Z,11.00
2022-10-21T09:16:55.822Z,13.80
2022-10-21T09:19:32.264Z,12.47
2022-10-21T09:22:33.839Z,11.20
2022-10-21T09:25:02.784Z,11.17
2022-10-21T09:27:32.029Z,11.23
2022-10-21T09:30:07.609Z,11.33
2022-10-21T09:32:41.324Z,10.13
2022-10-21T09:35:27.897Z,10.83
2022-10-21T09:38:03.065Z,12.50
2022-10-21T09:40:31.572Z,12.00
2022-10-21T09:42:59.742Z,10.90
2022-10-21T09:45:26.372Z,10.80
2022-10-21T09:48:04.520Z,10.93
2022-10-21T09:50:33.247Z,10.60
2022-10-21T09:53:11.353Z,10.30
2022-10-21T09:55:39.283Z,11.10
2022-10-21T09:58:06.329Z,9.97
2022-10-21T10:00:45.536Z,10.70
2022-10-21T10:03:12.464Z,10.70
2022-10-21T10:05:47.241Z,10.83
2022-10-21T10:08:47.568Z,10.20
2022-10-21T10:11:21.826Z,12.17
2022-10-21T10:13:53.523Z,12.87
2022-10-21T10:16:31.771Z,14.40
2022-10-21T10:19:26.064Z,13.33
2022-10-21T10:22:28.646Z,12.47
2022-10-21T10:25:17.071Z,10.40
2022-10-21T10:27:49.062Z,11.20
2022-10-21T10:30:16.888Z,11.30
2022-10-21T10:32:44.224Z,11.23
2022-10-21T10:35:30.992Z,10.20
2022-10-21T10:37:59.304Z,11.73
2022-10-21T10:40:41.815Z,10.57
2022-10-21T10:43:29.611Z,10.70
2022-10-21T10:46:01.634Z,10.97
2022-10-21T10:48:44.811Z,10.30
2022-10-21T10:51:26.346Z,10.13
2022-10-21T10:54:21.783Z,10.20
2022-10-21T10:57:00.969Z,10.10
2022-10-21T10:59:42.861Z,7.73
2022-10-21T11:02:09.809Z,8.43
2022-10-21T11:05:01.442Z,9.90
2022-10-21T11:07:39.493Z,8.77
2022-10-21T11:10:21.861Z,9.00
2022-10-21T11:12:48.571Z,9.70
2022-10-21T11:15:15.905Z,9.37
2022-10-21T11:17:53.251Z,9.33
2022-10-21T11:20:27.325Z,8.37
2022-10-21T11:25:46.971Z,8.70
2022-10-21T11:28:25.760Z,9.13
2022-10-21T11:31:15.422Z,8.50
2022-10-21T11:33:57.730Z,8.80
2022-10-21T11:36:32.382Z,8.53
2022-10-21T11:39:17.233Z,10.40
2022-10-21T11:41:52.839Z,9.27
2022-10-21T11:44:29.178Z,10.00
2022-10-21T11:47:09.404Z,9.33
2022-10-21T11:49:42.862Z,8.77
2022-10-21T11:52:31.252Z,9.37
2022-10-21T11:55:10.252Z,7.90
2022-10-21T11:57:50.199Z,8.33
2022-10-21T12:00:20.811Z,8.30
2022-10-21T12:03:21.689Z,8.40
2022-10-21T12:06:13.163Z,9.37
2022-10-21T12:08:47.175Z,8.13
2022-10-21T12:11:20.982Z,7.70
2022-10-21T12:14:20.074Z,7.90
2022-10-21T12:16:47.378Z,6.83
2022-10-21T12:19:14.754Z,8.60
2022-10-21T12:21:44.474Z,8.30
2022-10-21T12:24:11.081Z,9.50
2022-10-21T12:26:45.941Z,8.47
2022-10-21T12:29:15.394Z,7.87
2022-10-21T12:31:50.345Z,7.37
2022-10-21T12:34:17.383Z,8.80
2022-10-21T12:36:51.131Z,8.03
2022-10-21T12:39:37.803Z,7.93
2022-10-21T12:42:16.473Z,9.63
2022-10-21T12:44:51.081Z,8.33
2022-10-21T12:47:24.554Z,7.97
2022-10-21T12:50:09.894Z,9.10
2022-10-21T12:52:38.982Z,8.40
2022-10-21T12:55:08.814Z,10.00
2022-10-21T12:57:38.721Z,9.70
2022-10-21T13:00:31.703Z,8.50
2022-10-21T13:03:33.644Z,9.40
2022-10-21T13:06:02.940Z,9.60
2022-10-21T13:08:40.290Z,9.47
2022-10-21T13:11:09.971Z,9.53
2022-10-21T13:13:38.228Z,9.30
2022-10-21T13:16:19.944Z,9.20
2022-10-21T13:18:58.952Z,9.67
2022-10-21T13:21:31.141Z,8.50
2022-10-21T13:24:07.103Z,9.73
2022-10-21T13:26:33.873Z,9.30
2022-10-21T13:29:35.935Z,10.60
2022-10-21T13:32:14.429Z,8.80
2022-10-21T13:34:48.710Z,8.80
2022-10-21T13:37:17.308Z,9.07
2022-10-21T13:39:44.480Z,8.90
2022-10-21T13:42:16.807Z,9.10
2022-10-21T13:44:51.672Z,8.90
2022-10-21T13:47:33.311Z,11.93
2022-10-21T13:50:13.874Z,10.90
2022-10-21T13:52:43.254Z,11.17
2022-10-21T13:55:30.182Z,10.03
2022-10-21T13:57:57.069Z,9.83
2022-10-21T14:00:31.884Z,15.60
2022-10-21T14:03:03.997Z,16.57
2022-10-21T14:05:50.394Z,9.00
2022-10-21T14:08:38.282Z,8.07
2022-10-21T14:11:11.891Z,8.30
2022-10-21T14:13:39.433Z,8.63
2022-10-21T14:16:07.352Z,8.27
2022-10-21T14:18:37.820Z,8.43
2022-10-21T14:21:05.320Z,9.53
2022-10-21T14:23:32.305Z,10.03
2022-10-21T14:26:08.182Z,11.30
2022-10-21T14:28:36.441Z,9.20
2022-10-21T14:33:35.553Z,11.17
2022-10-21T14:36:24.954Z,8.70
2022-10-21T14:38:54.475Z,8.00
2022-10-21T14:41:38.143Z,10.03
2022-10-21T14:44:14.873Z,11.10
2022-10-21T14:46:43.651Z,13.13
2022-10-21T14:49:32.834Z,11.80
2022-10-21T14:52:05.943Z,10.47
2022-10-21T14:54:43.493Z,8.70
2022-10-21T14:57:41.369Z,9.63
2022-10-21T15:00:29.112Z,8.40
2022-10-21T15:02:58.172Z,6.90
2022-10-21T15:05:47.871Z,7.80
2022-10-21T15:08:21.707Z,8.27
2022-10-21T15:10:57.522Z,32.53
2022-10-21T15:13:25.865Z,19.93
2022-10-21T15:15:54.560Z,19.33
2022-10-21T15:18:49.110Z,16.33
2022-10-21T15:21:27.509Z,15.47
2022-10-21T15:23:56.815Z,12.80
2022-10-21T15:26:35.799Z,11.20
2022-10-21T15:29:20.441Z,11.27
2022-10-21T15:31:47.637Z,11.03
2022-10-21T15:34:15.877Z,10.97
2022-10-21T15:36:43.052Z,10.67
2022-10-21T15:39:10.158Z,9.93
2022-10-21T15:41:37.249Z,10.73
2022-10-21T15:44:16.668Z,11.50
2022-10-21T15:46:47.125Z,9.03
2022-10-21T15:49:24.918Z,11.27
2022-10-21T15:51:51.647Z,19.20
2022-10-21T15:54:19.419Z,13.87
2022-10-21T15:56:48.099Z,14.87
2022-10-21T15:59:18.897Z,28.80
2022-10-21T16:01:46.019Z,14.17
2022-10-21T16:04:12.817Z,31.50
2022-10-21T16:06:45.720Z,34.10
2022-10-21T16:09:19.634Z,39.20
2022-10-21T16:11:59.425Z,31.37
2022-10-21T16:14:29.629Z,40.37
2022-10-21T16:16:59.629Z,44.23
2022-10-21T16:19:26.529Z,34.03
2022-10-21T16:21:53.346Z,33.57
2022-10-21T16:24:20.017Z,17.20
2022-10-21T16:26:49.542Z,9.33
2022-10-21T16:29:24.284Z,27.37
2022-10-21T16:31:51.437Z,27.57
2022-10-21T16:34:18.289Z,19.00
2022-10-21T16:36:45.042Z,48.77
2022-10-21T16:39:17.625Z,55.47
2022-10-21T16:41:44.378Z,33.50
2022-10-21T16:44:11.127Z,22.83
2022-10-21T16:46:40.497Z,22.97
2022-10-21T16:49:13.089Z,12.70
2022-10-21T16:51:41.487Z,10.00
2022-10-21T16:54:08.218Z,8.07
2022-10-21T16:56:35.014Z,15.87
2022-10-21T16:59:01.757Z,12.70
2022-10-21T17:01:28.605Z,8.33
2022-10-21T17:03:55.397Z,6.70
2022-10-21T17:06:24.448Z,6.70
2022-10-21T17:08:52.822Z,5.63
2022-10-21T17:11:24.428Z,6.50
2022-10-21T17:13:51.287Z,19.10
2022-10-21T17:16:21.409Z,21.83
2022-10-21T17:18:48.777Z,16.27
2022-10-21T17:21:20.958Z,21.93
2022-10-21T17:23:51.127Z,29.33
2022-10-21T17:26:18.777Z,31.63
2022-10-21T17:28:45.874Z,23.67
2022-10-21T17:31:17.829Z,11.40
2022-10-21T17:33:45.298Z,8.37
2022-10-21T17:36:12.755Z,7.00
2022-10-21T17:38:39.979Z,5.93
2022-10-21T17:41:06.677Z,6.57
2022-10-21T17:43:33.435Z,6.57
2022-10-21T17:46:00.158Z,5.23
2022-10-21T17:48:26.988Z,3.20
2022-10-21T17:50:58.175Z,4.13
2022-10-21T17:53:24.895Z,4.10
2022-10-21T17:56:02.707Z,4.83
2022-10-21T17:58:30.218Z,10.13
2022-10-21T18:00:57.497Z,11.43
2022-10-21T18:03:28.761Z,11.60
2022-10-21T18:05:56.697Z,8.37
2022-10-21T18:08:23.946Z,6.97
2022-10-21T18:10:55.522Z,8.77
2022-10-21T18:13:26.673Z,17.93
2022-10-21T18:15:54.227Z,11.40
2022-10-21T18:18:22.678Z,9.83
2022-10-21T18:20:49.445Z,7.67
2022-10-21T18:23:16.288Z,9.67
2022-10-21T18:25:43.562Z,6.73
2022-10-21T18:28:11.801Z,6.73
2022-10-21T18:30:44.249Z,5.90
2022-10-21T18:33:12.823Z,5.10
2022-10-21T18:35:41.471Z,5.33
2022-10-21T18:38:09.568Z,5.43
2022-10-21T18:40:43.728Z,5.23
2022-10-21T18:43:19.140Z,3.70
2022-10-21T18:45:47.040Z,6.40
2022-10-21T18:48:14.511Z,5.60
2022-10-21T18:50:41.465Z,7.00
2022-10-21T18:53:08.938Z,9.77
2022-10-21T18:55:39.735Z,7.60
2022-10-21T18:58:06.458Z,9.30
2022-10-21T19:00:34.436Z,13.17
2022-10-21T19:03:02.553Z,11.47
2022-10-21T19:05:29.732Z,10.40
2022-10-21T19:07:57.937Z,8.90
2022-10-21T19:10:24.820Z,6.27
2022-10-21T19:12:52.577Z,6.60
2022-10-21T19:15:19.718Z,3.80
2022-10-21T19:17:47.872Z,6.13
2022-10-21T19:20:14.914Z,6.33
2022-10-21T19:22:41.589Z,5.70
2022-10-21T19:25:08.782Z,4.03
2022-10-21T19:27:35.387Z,5.83
2022-10-21T19:30:01.994Z,4.67
2022-10-21T19:32:28.647Z,4.30
2022-10-21T19:34:55.385Z,4.70
2022-10-21T19:37:21.951Z,5.23
2022-10-21T19:39:49.139Z,4.60
2022-10-21T19:42:15.857Z,5.03
2022-10-21T19:44:42.460Z,4.60
2022-10-21T19:47:09.147Z,4.23
2022-10-21T19:49:35.913Z,3.70
2022-10-21T19:52:03.334Z,2.83
2022-10-21T19:54:29.966Z,2.90
2022-10-21T19:56:56.932Z,3.93
2022-10-21T19:59:23.749Z,3.47
2022-10-21T20:01:50.548Z,3.20
2022-10-21T20:04:17.246Z,3.13
2022-10-21T20:06:43.868Z,3.47
2022-10-21T20:09:12.706Z,3.07
2022-10-21T20:11:40.173Z,2.57
2022-10-21T20:14:06.941Z,3.60
2022-10-21T20:16:36.986Z,2.90
2022-10-21T20:19:05.552Z,2.33
2022-10-21T20:21:33.346Z,3.40
2022-10-21T20:24:00.259Z,2.50
2022-10-21T20:26:28.871Z,3.10
2022-10-21T20:28:56.298Z,3.30
2022-10-21T20:31:23.462Z,2.80
2022-10-21T20:33:51.046Z,2.93
2022-10-21T20:36:29.009Z,3.20
2022-10-21T20:38:57.265Z,2.80
2022-10-21T20:41:26.301Z,3.63
2022-10-21T20:43:53.475Z,3.00
2022-10-21T20:46:22.209Z,4.53
2022-10-21T20:48:50.199Z,4.60
2022-10-21T20:51:22.200Z,3.70
2022-10-21T20:53:51.128Z,3.13
2022-10-21T20:56:17.965Z,4.30
2022-10-21T20:58:44.918Z,3.20
2022-10-21T21:01:18.174Z,4.00
2022-10-21T21:03:45.653Z,4.17
2022-10-21T21:06:13.093Z,3.57
2022-10-21T21:08:48.960Z,4.20
2022-10-21T21:11:20.587Z,4.83
2022-10-21T21:13:47.254Z,4.63
2022-10-21T21:16:18.705Z,5.20
2022-10-21T21:18:59.567Z,5.20
2022-10-21T21:21:27.843Z,3.67
2022-10-21T21:23:54.916Z,3.80
2022-10-21T21:26:34.427Z,3.90
2022-10-21T21:29:01.710Z,3.97
2022-10-21T21:31:29.876Z,3.13
2022-10-21T21:33:56.749Z,3.10
2022-10-21T21:36:24.071Z,3.70
2022-10-21T21:38:51.179Z,2.90
2022-10-21T21:41:18.281Z,3.87
2022-10-21T21:43:46.112Z,4.00
2022-10-21T21:46:12.747Z,4.30
2022-10-21T21:48:39.498Z,4.50
2022-10-21T21:51:10.306Z,4.87
2022-10-21T21:53:37.685Z,3.87
2022-10-21T21:56:07.236Z,3.50
2022-10-21T21:58:34.236Z,4.37
2022-10-21T22:01:15.931Z,4.00
2022-10-21T22:03:42.735Z,3.30
2022-10-21T22:06:09.929Z,4.23
2022-10-21T22:08:40.096Z,2.63
2022-10-21T22:11:12.214Z,3.10
2022-10-21T22:13:39.888Z,3.17
2022-10-21T22:16:08.175Z,2.70
2022-10-21T22:18:35.814Z,3.40
2022-10-21T22:21:05.993Z,2.73
2022-10-21T22:23:32.708Z,2.70
2022-10-21T22:25:59.310Z,3.57
2022-10-21T22:28:26.197Z,3.40
2022-10-21T22:31:03.964Z,3.53
2022-10-21T22:33:31.009Z,3.40
2022-10-21T22:35:57.649Z,3.60
2022-10-21T22:38:24.232Z,3.20
2022-10-21T22:40:58.625Z,3.50
2022-10-21T22:43:26.562Z,3.63
2022-10-21T22:45:57.632Z,3.87
2022-10-21T22:48:36.517Z,3.20
2022-10-21T22:51:03.426Z,4.30
2022-10-21T22:53:30.015Z,4.20
2022-10-21T22:55:56.713Z,5.07
2022-10-21T22:58:23.454Z,3.90
2022-10-21T23:00:51.198Z,6.30
2022-10-21T23:03:19.515Z,3.97
2022-10-21T23:05:47.969Z,4.47
2022-10-21T23:08:16.687Z,4.80
2022-10-21T23:10:43.618Z,4.67
2022-10-21T23:13:10.388Z,4.27
2022-10-21T23:15:37.058Z,5.00
2022-10-21T23:18:04.259Z,5.37
2022-10-21T23:20:30.959Z,6.03
2022-10-21T23:22:57.969Z,5.27
2022-10-21T23:25:24.678Z,5.37
2022-10-21T23:27:51.479Z,5.90
2022-10-21T23:30:18.980Z,6.10
2022-10-21T23:32:46.160Z,6.37
2022-10-21T23:35:14.178Z,5.87
2022-10-21T23:37:41.317Z,5.30
2022-10-21T23:40:09.002Z,4.97
2022-10-21T23:42:40.250Z,4.90
2022-10-21T23:45:11.150Z,5.97
2022-10-21T23:47:39.458Z,6.67
2022-10-21T23:50:07.629Z,5.07
2022-10-21T23:52:34.386Z,5.97
2022-10-21T23:55:01.042Z,6.80
2022-10-21T23:57:27.782Z,6.30
2022-10-21T23:59:54.464Z,7.10
